Time;durP1;ratioP1;P1;durP2;ratioP2;P2;SDS_P1;SDS_P2;PMS_P1;PMS_P2;Temp;Humidity;BMP_temperature;BMP_pressure;BME280_temperature;BME280_humidity;BME280_pressure;Samples;Min_cycle;Max_cycle;Signal;HPM_P1;HPM_P2
2022/03/18 00:02:22;;;;;;;12.07;6.90;;;;;;;4.98;65.27;101414.84;4273185;33;33364;-93
2022/03/18 00:04:53;;;;;;;14.63;7.47;;;;;;;4.96;64.78;101417.38;4265066;33;34224;-94
2022/03/18 00:07:44;;;;;;;14.55;7.55;;;;;;;4.94;64.56;101423.28;4260952;33;32435;-93
2022/03/18 00:10:17;;;;;;;14.32;7.70;;;;;;;4.87;64.09;101425.59;4280921;33;32281;-94
2022/03/18 00:13:07;;;;;;;10.50;6.70;;;;;;;4.69;64.01;101428.38;4265001;33;33921;-94
2022/03/18 00:16:38;;;;;;;8.60;5.50;;;;;;;4.74;63.90;101432.81;4256687;33;32826;-96
2022/03/18 00:20:03;;;;;;;9.30;5.40;;;;;;;4.59;63.67;101431.41;4257611;33;32845;-95
2022/03/18 00:23:36;;;;;;;12.98;7.50;;;;;;;4.52;64.26;101428.50;4274187;33;33430;-95
2022/03/18 00:26:24;;;;;;;11.52;6.28;;;;;;;4.63;64.14;101434.94;4265873;33;35046;-95
2022/03/18 00:34:03;;;;;;;11.43;6.72;;;;;;;4.32;64.98;101435.44;4239169;33;33991;-95
2022/03/18 00:37:22;;;;;;;11.27;6.40;;;;;;;4.64;64.48;101442.75;4235040;33;34185;-96
2022/03/18 00:40:12;;;;;;;11.80;6.20;;;;;;;4.58;64.76;101436.47;4233286;33;33807;-95
2022/03/18 00:43:21;;;;;;;10.88;5.45;;;;;;;4.35;65.60;101440.69;4232861;33;35057;-95
2022/03/18 00:46:02;;;;;;;13.40;6.40;;;;;;;4.77;64.81;101450.91;4236593;33;33471;-95
2022/03/18 00:52:52;;;;;;;9.52;5.82;;;;;;;4.40;66.25;101446.91;4236854;33;32460;-95
2022/03/18 00:55:51;;;;;;;10.32;6.75;;;;;;;4.45;66.39;101453.13;4243650;33;33545;-96
2022/03/18 00:59:20;;;;;;;11.05;6.03;;;;;;;4.65;65.38;101444.47;4251068;33;32975;-95
2022/03/18 01:02:14;;;;;;;12.15;6.62;;;;;;;4.71;64.77;101454.13;4228375;33;32571;-96
2022/03/18 01:05:07;;;;;;;11.40;6.57;;;;;;;4.58;64.89;101450.19;4260140;33;33570;-96
2022/03/18 01:07:58;;;;;;;13.25;7.70;;;;;;;4.43;64.93;101453.03;4254674;33;33205;-96
2022/03/18 01:11:32;;;;;;;11.05;5.55;;;;;;;4.52;64.15;101449.06;4266650;33;34062;-95
2022/03/18 01:15:28;;;;;;;13.68;6.87;;;;;;;4.10;65.11;101452.53;4253684;33;32711;-94
2022/03/18 01:19:35;;;;;;;9.73;5.37;;;;;;;4.21;64.83;101450.44;4256594;33;33149;-96
2022/03/18 01:23:23;;;;;;;11.55;5.82;;;;;;;4.03;64.92;101456.53;4270001;33;34038;-95
2022/03/18 01:31:21;;;;;;;8.65;5.62;;;;;;;4.20;64.79;101457.22;4207937;34;34303;-96
2022/03/18 01:34:39;;;;;;;13.88;6.87;;;;;;;4.35;64.21;101453.53;4180844;34;33003;-95
2022/03/18 01:38:00;;;;;;;12.82;6.95;;;;;;;4.18;64.68;101451.19;4207709;33;33265;-96
2022/03/18 01:41:57;;;;;;;12.45;6.18;;;;;;;4.19;65.10;101457.19;4207313;33;33156;-96
2022/03/18 01:45:09;;;;;;;;;;;;;;;4.36;63.92;101465.59;4184814;34;32022;-94
2022/03/18 01:48:21;;;;;;;12.15;5.62;;;;;;;3.92;65.34;101460.37;4206974;33;32857;-95
2022/03/18 01:51:30;;;;;;;8.05;4.80;;;;;;;4.22;64.17;101470.16;4193350;34;33534;-95
2022/03/18 01:54:48;;;;;;;10.93;5.80;;;;;;;4.10;64.05;101469.66;4218807;33;33827;-93
2022/03/18 01:58:40;;;;;;;11.57;6.10;;;;;;;4.14;63.59;101477.53;4255595;33;33407;-95
2022/03/18 02:02:10;;;;;;;11.32;5.30;;;;;;;4.15;63.17;101474.16;4254571;33;32819;-94
2022/03/18 02:04:59;;;;;;;9.45;6.12;;;;;;;4.16;63.33;101473.34;4275988;33;32558;-96
2022/03/18 02:09:09;;;;;;;8.48;6.40;;;;;;;4.06;63.56;101472.09;4250404;33;32464;-96
2022/03/18 02:11:59;;;;;;;10.45;5.28;;;;;;;4.31;62.20;101474.81;4252980;33;32519;-94
2022/03/18 02:14:50;;;;;;;11.60;5.45;;;;;;;4.03;63.01;101476.22;4259904;33;32891;-96
2022/03/18 02:17:39;;;;;;;10.88;6.45;;;;;;;4.09;62.80;101475.59;4263558;33;34542;-94
2022/03/18 02:20:09;;;;;;;11.27;6.90;;;;;;;4.07;62.75;101478.97;4269289;33;33811;-96
2022/03/18 02:23:41;;;;;;;9.88;6.55;;;;;;;3.99;62.85;101476.91;4267451;33;33805;-95
2022/03/18 02:27:10;;;;;;;14.15;5.97;;;;;;;4.04;62.79;101494.25;4263010;33;33506;-94
2022/03/18 02:30:21;;;;;;;13.05;7.47;;;;;;;3.95;63.07;101490.44;4275254;33;32402;-96
2022/03/18 02:33:11;;;;;;;11.23;7.43;;;;;;;4.02;63.10;101493.31;4260382;33;33035;-95
2022/03/18 02:36:02;;;;;;;11.88;6.50;;;;;;;4.05;63.35;101500.28;4259008;33;33609;-96
2022/03/18 02:39:12;;;;;;;18.70;8.02;;;;;;;4.00;63.95;101500.06;4261995;33;33243;-95
2022/03/18 02:42:41;;;;;;;11.38;7.43;;;;;;;3.57;67.66;101502.47;4254006;33;33234;-96
2022/03/18 02:45:31;;;;;;;17.83;8.25;;;;;;;3.47;69.91;101502.88;4252773;33;33921;-95
2022/03/18 02:48:30;;;;;;;12.75;7.25;;;;;;;3.10;72.47;101520.03;4261191;33;32823;-95
2022/03/18 02:51:01;;;;;;;14.53;7.93;;;;;;;3.14;72.57;101519.38;4258275;33;33200;-96
2022/03/18 02:53:33;;;;;;;11.98;7.82;;;;;;;2.84;72.79;101521.37;4260334;33;34290;-95
2022/03/18 02:56:45;;;;;;;15.27;9.00;;;;;;;3.28;71.45;101519.13;4280160;33;34526;-93
2022/03/18 02:59:38;;;;;;;16.12;8.45;;;;;;;3.54;70.55;101528.00;4279080;33;32066;-94
2022/03/18 03:02:17;;;;;;;13.25;8.07;;;;;;;3.52;70.13;101529.63;4254798;33;31542;-96
2022/03/18 03:08:26;;;;;;;15.23;8.15;;;;;;;2.62;72.68;101536.53;4242741;33;33266;-95
2022/03/18 03:10:56;;;;;;;13.95;8.10;;;;;;;2.46;72.91;101527.19;4245439;33;34660;-96
2022/03/18 03:14:27;;;;;;;10.25;7.45;;;;;;;3.02;71.21;101539.31;4241749;33;32745;-94
2022/03/18 03:17:16;;;;;;;9.48;6.47;;;;;;;3.60;67.91;101549.69;4245430;33;32986;-95
2022/03/18 03:20:08;;;;;;;12.55;8.45;;;;;;;3.26;67.73;101554.06;4240612;33;33382;-96
2022/03/18 03:23:25;;;;;;;10.35;5.97;;;;;;;3.56;65.25;101552.91;4241453;33;32187;-96
2022/03/18 03:27:15;;;;;;;12.60;7.12;;;;;;;3.62;63.07;101549.75;4247955;33;33260;-95
2022/03/18 03:30:20;;;;;;;9.50;5.50;;;;;;;4.04;61.08;101560.16;4252414;33;33088;-96
2022/03/18 03:33:33;;;;;;;10.77;6.20;;;;;;;3.42;60.68;101564.25;4259586;33;33547;-96
2022/03/18 03:37:12;;;;;;;13.18;6.68;;;;;;;4.22;58.41;101573.78;4255747;33;33236;-96
2022/03/18 03:40:20;;;;;;;8.90;5.72;;;;;;;3.89;59.12;101570.66;4239982;33;33870;-96
2022/03/18 03:43:54;;;;;;;9.48;5.22;;;;;;;3.73;57.59;101589.59;4243280;33;33063;-96
2022/03/18 03:46:33;;;;;;;12.50;6.65;;;;;;;3.84;57.35;101596.13;4238909;33;32847;-96
2022/03/18 03:49:23;;;;;;;5.82;4.55;;;;;;;3.88;56.94;101596.25;4242092;33;36111;-95
2022/03/18 03:52:22;;;;;;;13.45;5.75;;;;;;;3.75;56.46;101594.81;4244753;33;33180;-96
2022/03/18 03:55:54;;;;;;;;;;;;;;;4.04;56.16;101591.84;4252686;33;35344;-95
2022/03/18 03:59:42;;;;;;;10.48;5.60;;;;;;;4.16;55.66;101606.94;4255218;33;33052;-96
2022/03/18 04:02:43;;;;;;;9.15;5.60;;;;;;;3.84;55.81;101608.03;4242275;33;32708;-95
2022/03/18 04:06:16;;;;;;;7.93;5.18;;;;;;;3.65;54.39;101611.50;4250042;33;32860;-96
2022/03/18 04:09:16;;;;;;;9.65;5.47;;;;;;;3.91;54.63;101614.34;4242141;33;33874;-94
2022/03/18 04:12:29;;;;;;;9.27;5.80;;;;;;;3.78;54.30;101615.50;4251442;33;33152;-95
2022/03/18 04:15:23;;;;;;;14.00;5.43;;;;;;;3.56;53.68;101619.63;4240352;33;32211;-95
2022/03/18 04:18:06;;;;;;;9.18;4.97;;;;;;;3.58;53.73;101620.59;4247737;33;33158;-95
2022/03/18 04:21:01;;;;;;;7.70;5.03;;;;;;;3.60;53.39;101624.13;4241053;33;34359;-95
2022/03/18 04:24:06;;;;;;;9.15;5.57;;;;;;;3.26;54.05;101621.62;4233625;33;34727;-95
2022/03/18 04:27:26;;;;;;;10.25;5.22;;;;;;;3.34;54.20;101630.59;4248054;33;32570;-95
2022/03/18 04:30:23;;;;;;;7.25;4.72;;;;;;;3.57;53.41;101623.09;4253625;33;33075;-95
2022/03/18 04:34:08;;;;;;;9.05;4.87;;;;;;;3.48;52.52;101633.81;4260974;33;33366;-95
2022/03/18 04:37:45;;;;;;;8.32;3.83;;;;;;;3.55;52.73;101629.81;4262340;33;32741;-96
2022/03/18 04:41:40;;;;;;;8.25;4.32;;;;;;;4.02;51.10;101637.13;4257575;33;34696;-95
2022/03/18 04:44:38;;;;;;;6.57;5.10;;;;;;;4.16;51.15;101642.88;4243587;33;32730;-96
2022/03/18 04:48:24;;;;;;;6.28;4.18;;;;;;;3.70;51.19;101645.09;4256832;33;33476;-95
2022/03/18 04:51:13;;;;;;;7.65;4.22;;;;;;;4.00;49.69;101651.59;4252300;33;32586;-95
2022/03/18 04:55:02;;;;;;;6.82;3.95;;;;;;;4.27;49.18;101659.63;4243410;33;32587;-96
2022/03/18 04:58:32;;;;;;;5.07;4.40;;;;;;;4.13;49.17;101663.31;4242455;33;33700;-95
2022/03/18 05:02:35;;;;;;;12.60;4.18;;;;;;;3.85;47.91;101668.88;4260215;33;33126;-95
2022/03/18 05:06:36;;;;;;;8.57;4.12;;;;;;;4.10;46.57;101673.41;4243760;33;33759;-96
2022/03/18 05:10:58;;;;;;;7.32;3.33;;;;;;;4.35;45.17;101677.97;4263128;33;34453;-96
2022/03/18 05:15:32;;;;;;;4.65;3.55;;;;;;;4.22;45.97;101691.06;4242573;33;34341;-95
2022/03/18 05:19:20;;;;;;;;;;;;;;;;;;;;;
2022/03/18 05:23:07;;;;;;;6.72;3.58;;;;;;;4.09;45.47;101687.09;4242447;33;34298;-95
2022/03/18 05:36:23;;;;;;;6.43;3.33;;;;;;;3.81;44.90;101706.34;4124712;34;32759;-95
2022/03/18 07:23:40;;;;;;;6.95;3.80;;;;;;;6.08;37.98;101799.22;4192025;33;34473;-93
2022/03/18 07:26:34;;;;;;;6.45;3.95;;;;;;;5.13;39.78;101809.06;4190367;34;34418;-93
2022/03/18 07:54:48;;;;;;;5.65;3.67;;;;;;;5.14;40.25;101844.25;4182195;34;37594;-94
2022/03/18 07:58:01;;;;;;;10.90;5.28;;;;;;;5.57;39.99;101854.69;4184735;34;33693;-93
2022/03/18 08:01:15;;;;;;;6.90;4.22;;;;;;;6.18;39.74;101855.44;4168789;34;32601;-94
2022/03/18 08:03:57;;;;;;;7.32;4.95;;;;;;;6.59;38.28;101858.75;4166250;34;32976;-93
2022/03/18 08:07:20;;;;;;;6.45;3.92;;;;;;;6.62;38.29;101861.47;4163721;34;34913;-93
2022/03/18 08:11:02;;;;;;;5.35;3.65;;;;;;;6.50;38.92;101864.44;4151462;34;33028;-96
2022/03/18 08:14:41;;;;;;;8.27;4.43;;;;;;;6.69;38.81;101859.97;4159028;34;33155;-95
2022/03/18 08:17:34;;;;;;;4.62;3.75;;;;;;;6.86;38.96;101865.75;4160346;34;33813;-94
2022/03/18 08:20:40;;;;;;;7.53;3.83;;;;;;;6.98;38.21;101863.63;4161809;34;33616;-94
2022/03/18 08:24:25;;;;;;;8.02;4.12;;;;;;;6.81;38.29;101868.16;4162526;34;189789;-94
2022/03/18 08:27:16;;;;;;;7.18;4.68;;;;;;;6.47;38.22;101872.03;4163060;34;33620;-94
2022/03/18 08:31:26;;;;;;;8.35;4.03;;;;;;;6.71;37.52;101877.25;4176646;34;32213;-95
2022/03/18 08:34:10;;;;;;;7.30;4.25;;;;;;;6.91;37.43;101879.69;4192939;33;34583;-95
2022/03/18 08:37:08;;;;;;;8.23;4.80;;;;;;;7.11;37.44;101885.59;4191826;34;34924;-95
2022/03/18 08:40:06;;;;;;;7.78;5.05;;;;;;;6.48;38.56;101889.28;4190019;34;33628;-95
2022/03/18 08:42:57;;;;;;;8.30;4.50;;;;;;;5.85;39.04;101884.16;4209155;33;33818;-93
2022/03/18 08:45:52;;;;;;;6.03;4.03;;;;;;;6.62;38.06;101892.41;4199432;33;34339;-94
2022/03/18 08:49:23;;;;;;;6.82;4.28;;;;;;;6.80;38.22;101899.94;4192076;34;31092;-95
2022/03/18 08:52:12;;;;;;;8.57;4.85;;;;;;;6.92;38.42;101896.97;4209895;33;32622;-93
2022/03/18 08:55:47;;;;;;;8.15;4.25;;;;;;;7.02;38.37;101896.47;4202997;34;33179;-92
2022/03/18 08:59:20;;;;;;;7.32;4.20;;;;;;;7.22;38.41;101900.66;4202737;34;34153;-95
2022/03/18 09:02:49;;;;;;;9.40;4.70;;;;;;;7.07;38.75;101902.66;4202574;34;33210;-93
2022/03/18 09:05:19;;;;;;;8.88;4.45;;;;;;;7.92;36.69;101901.31;4206943;34;33089;-95
2022/03/18 09:07:49;;;;;;;8.57;5.50;;;;;;;7.51;37.70;101905.09;4212067;33;34062;-93
2022/03/18 09:10:58;;;;;;;9.82;5.10;;;;;;;7.53;37.81;101914.63;4203370;34;34428;-94
2022/03/18 09:14:10;;;;;;;8.82;5.00;;;;;;;6.89;39.05;101910.63;4202988;34;34368;-92
2022/03/18 09:17:00;;;;;;;7.15;4.87;;;;;;;7.59;38.05;101919.16;4203907;34;32557;-94
2022/03/18 09:20:13;;;;;;;8.73;5.60;;;;;;;7.43;38.41;101917.72;4206234;33;33437;-94
2022/03/18 09:23:22;;;;;;;6.80;3.70;;;;;;;8.08;37.16;101919.09;4211970;34;34685;-91
2022/03/18 09:26:12;;;;;;;6.90;4.47;;;;;;;8.15;36.32;101903.78;4214479;34;34423;-96
2022/03/18 09:30:03;;;;;;;11.65;5.68;;;;;;;7.94;37.54;101924.63;4214635;33;32232;-94
2022/03/18 09:33:34;;;;;;;8.20;5.87;;;;;;;7.80;38.29;101930.19;4215471;33;33041;-93
2022/03/18 09:36:42;;;;;;;10.00;5.78;;;;;;;8.14;38.27;101926.16;4234290;33;33221;-93
2022/03/18 09:39:14;;;;;;;8.70;5.80;;;;;;;8.27;39.15;101924.87;4216431;33;34142;-95
2022/03/18 09:43:17;;;;;;;8.88;4.82;;;;;;;7.45;41.03;101931.59;4223549;33;34338;-93
2022/03/18 09:46:28;;;;;;;10.93;6.07;;;;;;;8.03;39.69;101925.81;4223853;33;33183;-93
2022/03/18 09:49:11;;;;;;;11.40;7.03;;;;;;;8.54;40.63;101920.59;4218238;33;33294;-94
2022/03/18 09:52:05;;;;;;;11.07;5.85;;;;;;;8.52;41.43;101918.78;4221246;33;33789;-94
2022/03/18 09:55:18;;;;;;;9.15;5.57;;;;;;;8.61;40.15;101916.47;4224171;33;31728;-92
2022/03/18 09:58:21;;;;;;;11.38;6.62;;;;;;;8.60;40.23;101916.44;4215159;33;33939;-93
2022/03/18 10:03:07;;;;;;;9.25;5.30;;;;;;;9.03;39.44;101915.13;4211348;33;34458;-95
2022/03/18 10:07:17;;;;;;;8.93;5.68;;;;;;;8.71;39.96;101918.50;4203750;34;32643;-93
2022/03/18 10:10:22;;;;;;;9.80;5.15;;;;;;;8.00;43.12;101940.38;4216292;33;33916;-94
2022/03/18 10:14:51;;;;;;;8.57;5.97;;;;;;;8.94;41.75;101924.38;4214922;33;32819;-95
2022/03/18 10:18:21;;;;;;;10.55;6.00;;;;;;;8.61;42.43;101936.31;4263492;33;34717;-95
2022/03/18 10:27:00;;;;;;;8.10;4.85;;;;;;;9.00;43.05;101935.75;4243455;33;32767;-94
2022/03/18 10:30:35;;;;;;;;;;;;;;;8.73;42.67;101931.50;4246591;33;34729;-93
2022/03/18 10:38:03;;;;;;;14.63;7.75;;;;;;;9.42;43.29;101933.47;4254438;33;34671;-94
2022/03/18 10:41:52;;;;;;;19.10;6.95;;;;;;;9.13;43.23;101937.84;4253924;33;32830;-93
2022/03/18 10:45:10;;;;;;;11.43;6.82;;;;;;;8.48;43.90;101935.94;4244339;33;33200;-95
2022/03/18 10:48:48;;;;;;;12.45;6.20;;;;;;;9.74;41.81;101931.78;4258174;33;33396;-95
2022/03/18 10:55:44;;;;;;;9.98;6.22;;;;;;;8.98;43.30;101938.28;4260853;33;34968;-94
2022/03/18 10:59:41;;;;;;;8.90;5.53;;;;;;;9.70;42.27;101935.13;4261411;33;34346;-96
2022/03/18 11:03:15;;;;;;;8.02;5.57;;;;;;;10.18;41.70;101936.34;4263920;33;33844;-94
2022/03/18 11:06:10;;;;;;;15.05;6.80;;;;;;;10.34;40.96;101935.91;4246352;33;32461;-95
2022/03/18 11:14:10;;;;;;;14.13;8.15;;;;;;;10.25;40.94;101933.03;4258213;33;33071;-95
2022/03/18 11:18:21;;;;;;;10.48;7.20;;;;;;;10.65;39.89;101934.00;4259558;33;34257;-95
2022/03/18 12:03:34;;;;;;;13.60;7.82;;;;;;;11.74;40.08;101905.00;4106105;34;34079;-95
2022/03/18 12:07:35;;;;;;;11.68;7.05;;;;;;;11.28;40.45;101901.53;4198459;33;35548;-95
2022/03/18 12:11:05;;;;;;;10.45;6.05;;;;;;;11.26;40.77;101903.22;4248161;33;34907;-94
2022/03/18 12:15:04;;;;;;;12.93;7.68;;;;;;;11.37;41.15;101901.72;4224633;33;33186;-95
2022/03/18 12:19:43;;;;;;;12.88;6.80;;;;;;;12.03;40.50;101891.63;4183266;34;35120;-96
2022/03/18 12:23:22;;;;;;;9.85;6.37;;;;;;;11.81;40.71;101886.03;4191578;34;33840;-95
2022/03/18 12:26:44;;;;;;;11.52;6.70;;;;;;;12.50;39.74;101881.06;4203656;33;33052;-94
2022/03/18 12:33:19;;;;;;;12.20;6.43;;;;;;;12.43;39.04;101874.03;4210915;33;32840;-95
2022/03/18 12:36:53;;;;;;;15.27;7.68;;;;;;;12.31;39.09;101870.37;4190615;34;31957;-95
2022/03/18 12:40:19;;;;;;;10.50;6.68;;;;;;;11.99;39.77;101856.03;4205911;33;33174;-94
2022/03/18 12:43:47;;;;;;;15.63;7.90;;;;;;;12.54;38.86;101865.53;4249450;33;34887;-93
2022/03/18 12:46:25;;;;;;;12.95;7.30;;;;;;;12.65;39.09;101865.66;4274253;33;33735;-95
2022/03/18 12:49:16;;;;;;;12.02;7.00;;;;;;;12.80;38.95;101863.22;4238994;33;31515;-95
2022/03/18 12:52:26;;;;;;;25.95;9.52;;;;;;;12.56;38.80;101860.31;4240138;33;32407;-93
2022/03/18 12:55:25;;;;;;;12.52;7.35;;;;;;;12.36;39.50;101858.31;4262467;33;32951;-95
2022/03/18 12:58:59;;;;;;;12.23;6.85;;;;;;;11.65;40.88;101863.25;4254023;33;33631;-96
2022/03/18 13:02:12;;;;;;;15.43;7.40;;;;;;;12.23;39.87;101850.34;4240734;33;33779;-95
2022/03/18 13:05:27;;;;;;;12.50;6.82;;;;;;;12.71;38.93;101847.53;4265126;33;32983;-94
2022/03/18 13:08:36;;;;;;;13.50;8.45;;;;;;;13.01;38.49;101847.00;4241564;33;35599;-94
2022/03/18 13:11:50;;;;;;;13.23;8.85;;;;;;;12.99;37.90;101848.69;4243631;33;33784;-96
2022/03/18 13:15:21;;;;;;;13.07;7.45;;;;;;;11.99;39.99;101849.09;4242558;33;33534;-95
2022/03/18 13:19:31;;;;;;;12.13;7.03;;;;;;;12.72;38.56;101838.84;4255496;33;34811;-96
2022/03/18 13:22:00;;;;;;;12.02;7.12;;;;;;;13.48;37.28;101829.25;4254668;33;34122;-94
2022/03/18 13:25:33;;;;;;;12.13;7.93;;;;;;;13.86;36.30;101832.19;4254004;33;33489;-95
2022/03/18 13:28:45;;;;;;;13.15;7.43;;;;;;;13.65;36.91;101827.66;4251802;33;33704;-95
2022/03/18 13:33:24;;;;;;;12.85;7.45;;;;;;;13.38;37.17;101830.91;4263963;33;33942;-95
2022/03/18 13:36:50;;;;;;;12.43;6.95;;;;;;;14.29;35.17;101824.62;4243089;33;32614;-95
2022/03/18 13:41:14;;;;;;;13.70;7.35;;;;;;;13.90;36.19;101810.47;4256809;33;32479;-95
2022/03/18 13:48:09;;;;;;;;;;;;;;;14.11;35.43;101814.97;4270617;33;33095;-95
2022/03/18 13:51:55;;;;;;;10.93;6.15;;;;;;;13.35;37.11;101813.50;4270494;33;33166;-94
2022/03/18 13:59:54;;;;;;;13.62;7.90;;;;;;;14.57;33.87;101812.63;4244498;33;35056;-94
2022/03/18 14:04:47;;;;;;;12.13;6.47;;;;;;;14.25;34.31;101815.91;4255939;33;34166;-95
2022/03/18 14:07:45;;;;;;;15.27;6.40;;;;;;;14.13;34.60;101814.97;4256432;33;34294;-95
2022/03/18 14:10:59;;;;;;;10.43;6.05;;;;;;;14.38;34.34;101809.03;4267460;33;30736;-95
2022/03/18 14:14:51;;;;;;;11.90;6.45;;;;;;;14.49;34.14;101809.94;4269040;33;32912;-95
2022/03/18 14:23:11;;;;;;;14.35;6.28;;;;;;;14.75;33.25;101810.97;4251742;33;35009;-96
2022/03/18 14:26:25;;;;;;;15.23;7.50;;;;;;;14.21;33.65;101802.84;4257978;33;32876;-95
2022/03/18 14:30:40;;;;;;;15.65;7.37;;;;;;;14.46;33.41;101804.69;4260720;33;32295;-95
2022/03/18 14:38:49;;;;;;;14.02;7.60;;;;;;;13.76;34.56;101804.28;4187339;34;34987;-95
2022/03/18 14:47:10;;;;;;;15.27;8.73;;;;;;;14.64;32.79;101797.84;4204367;34;34194;-96
2022/03/18 14:51:06;;;;;;;11.55;6.72;;;;;;;15.17;32.11;101797.09;4194210;34;36346;-96
2022/03/18 19:09:21;;;;;;;14.65;7.45;;;;;;;6.95;52.12;101894.47;4937583;28;20096;-95
2022/03/18 21:31:38;;;;;;;10.20;6.15;;;;;;;5.65;55.45;101897.87;4299087;33;33885;-94
2022/03/18 21:35:10;;;;;;;18.35;10.98;;;;;;;5.63;54.93;101895.28;4290086;33;33172;-96
2022/03/18 21:49:57;;;;;;;16.33;5.70;;;;;;;5.24;56.94;101895.31;4261010;33;34859;-96
2022/03/18 22:18:46;;;;;;;11.20;7.72;;;;;;;5.42;56.46;101895.22;4270977;33;36612;-96
2022/03/18 22:23:08;;;;;;;10.25;5.97;;;;;;;5.42;56.34;101894.34;4259556;33;33414;-96
2022/03/18 22:26:37;;;;;;;15.20;7.20;;;;;;;5.38;56.60;101898.47;4242696;33;35284;-95
2022/03/18 22:33:31;;;;;;;10.85;6.15;;;;;;;5.54;56.55;101894.87;4172134;34;34510;-96
2022/03/18 23:33:19;;;;;;;10.60;5.47;;;;;;;6.30;55.72;101880.81;4260381;33;32491;-95
2022/03/18 23:36:41;;;;;;;12.27;7.28;;;;;;;6.41;55.69;101880.44;4261274;33;34094;-95
2022/03/18 23:39:22;;;;;;;9.77;5.72;;;;;;;6.33;56.00;101874.09;4266347;33;33306;-95
